Time;durP1;ratioP1;P1;durP2;ratioP2;P2;SDS_P1;SDS_P2;PMS_P1;PMS_P2;Temp;Humidity;BMP_temperature;BMP_pressure;BME280_temperature;BME280_humidity;BME280_pressure;Samples;Min_cycle;Max_cycle;Signal;HPM_P1;HPM_P2
2024/02/20 00:03:00;;;;;;;55.33;32.95;;;;;;;;;;10365287;28;20407;-91
2024/02/20 00:08:05;;;;;;;55.00;34.00;;;;;;;;;;10360513;28;20432;-90
2024/02/20 00:13:08;;;;;;;53.93;34.47;;;;;;;;;;10341410;28;20420;-90
2024/02/20 00:18:10;;;;;;;56.67;34.53;;;;;;;;;;10349798;28;20406;-90
2024/02/20 00:23:14;;;;;;;52.90;32.03;;;;;;;;;;10339857;28;20425;-90
2024/02/20 00:28:16;;;;;;;53.22;32.65;;;;;;;;;;10348004;28;20460;-89
2024/02/20 00:33:19;;;;;;;51.27;31.83;;;;;;;;;;10346731;28;20451;-90
2024/02/20 00:38:22;;;;;;;53.93;32.27;;;;;;;;;;10353954;28;20407;-90
2024/02/20 00:43:25;;;;;;;50.72;30.90;;;;;;;;;;10346928;28;20781;-90
2024/02/20 00:48:27;;;;;;;48.92;31.05;;;;;;;;;;10340720;28;20425;-90
2024/02/20 00:53:31;;;;;;;49.17;30.25;;;;;;;;;;10353816;28;20405;-90
2024/02/20 00:58:33;;;;;;;50.30;30.80;;;;;;;;;;10356578;28;20420;-90
2024/02/20 01:03:36;;;;;;;49.58;31.30;;;;;;;;;;10366664;28;20418;-90
2024/02/20 01:08:41;;;;;;;52.65;32.15;;;;;;;;;;10345822;28;20420;-90
2024/02/20 01:13:43;;;;;;;51.78;31.42;;;;;;;;;;10366332;28;20540;-90
2024/02/20 01:18:46;;;;;;;52.80;32.53;;;;;;;;;;10352023;28;20893;-90
2024/02/20 01:23:49;;;;;;;48.60;31.02;;;;;;;;;;10348799;28;20409;-90
2024/02/20 01:28:52;;;;;;;52.65;31.23;;;;;;;;;;10351488;28;20981;-90
2024/02/20 01:33:54;;;;;;;48.15;31.25;;;;;;;;;;10361386;28;20434;-89
2024/02/20 01:38:58;;;;;;;50.60;31.90;;;;;;;;;;10359405;28;20732;-91
2024/02/20 01:44:00;;;;;;;52.08;30.90;;;;;;;;;;10352319;28;20407;-90
2024/02/20 01:49:03;;;;;;;50.22;30.90;;;;;;;;;;10353143;28;20919;-90
2024/02/20 01:54:07;;;;;;;48.97;30.43;;;;;;;;;;10349991;28;20412;-90
2024/02/20 01:59:10;;;;;;;52.53;32.13;;;;;;;;;;10354705;28;20481;-89
2024/02/20 02:04:13;;;;;;;51.30;31.58;;;;;;;;;;10358563;28;20748;-90
2024/02/20 02:09:16;;;;;;;56.22;32.20;;;;;;;;;;10356803;28;20459;-89
2024/02/20 02:14:19;;;;;;;49.13;29.90;;;;;;;;;;10391379;28;20420;-89
2024/02/20 02:19:21;;;;;;;47.35;30.58;;;;;;;;;;10371868;28;20411;-89
2024/02/20 02:24:25;;;;;;;50.20;30.70;;;;;;;;;;10366261;28;20913;-90
2024/02/20 02:29:29;;;;;;;48.33;30.50;;;;;;;;;;10343432;28;20432;-90
2024/02/20 02:34:31;;;;;;;49.80;30.30;;;;;;;;;;10347635;28;20523;-90
2024/02/20 02:39:34;;;;;;;52.73;31.33;;;;;;;;;;10347104;28;20420;-91
2024/02/20 02:44:37;;;;;;;49.58;30.08;;;;;;;;;;10348112;28;20440;-90
2024/02/20 02:49:40;;;;;;;47.33;30.20;;;;;;;;;;10341336;28;20428;-90
2024/02/20 02:54:42;;;;;;;47.67;31.20;;;;;;;;;;10342074;28;20417;-89
2024/02/20 02:59:46;;;;;;;51.05;32.20;;;;;;;;;;10362360;28;20977;-90
2024/02/20 03:04:49;;;;;;;55.37;33.00;;;;;;;;;;10351116;28;20424;-90
2024/02/20 03:09:51;;;;;;;53.75;31.55;;;;;;;;;;10347818;28;20807;-90
2024/02/20 03:14:56;;;;;;;52.92;30.10;;;;;;;;;;10348486;28;20467;-90
2024/02/20 03:19:59;;;;;;;49.40;30.60;;;;;;;;;;10349265;28;20417;-90
2024/02/20 03:25:01;;;;;;;47.60;30.50;;;;;;;;;;10348459;28;20448;-89
2024/02/20 03:30:06;;;;;;;47.33;28.90;;;;;;;;;;10349990;28;20463;-90
2024/02/20 03:35:20;;;;;;;45.93;28.37;;;;;;;;;;10357217;28;20419;-90
2024/02/20 03:40:22;;;;;;;45.15;27.20;;;;;;;;;;10354073;28;20411;-89
2024/02/20 03:45:26;;;;;;;43.03;25.23;;;;;;;;;;10347248;28;20417;-90
2024/02/20 03:50:29;;;;;;;40.47;24.35;;;;;;;;;;10342988;28;20432;-90
2024/02/20 03:55:32;;;;;;;42.42;22.90;;;;;;;;;;10370579;28;20419;-90
2024/02/20 04:00:35;;;;;;;39.77;22.93;;;;;;;;;;10354568;28;20446;-90
2024/02/20 04:05:38;;;;;;;36.67;22.58;;;;;;;;;;10351337;28;20405;-91
2024/02/20 04:10:41;;;;;;;33.95;21.25;;;;;;;;;;10352920;28;20453;-90
2024/02/20 04:15:47;;;;;;;34.60;21.08;;;;;;;;;;10343653;28;20452;-90
2024/02/20 04:20:50;;;;;;;35.53;21.55;;;;;;;;;;10345240;28;20447;-90
2024/02/20 04:25:52;;;;;;;33.13;21.27;;;;;;;;;;10342740;28;20416;-91
2024/02/20 04:30:56;;;;;;;33.00;21.00;;;;;;;;;;10345818;28;20463;-90
2024/02/20 04:35:58;;;;;;;35.67;21.75;;;;;;;;;;10344921;28;20421;-89
2024/02/20 04:41:01;;;;;;;33.10;20.73;;;;;;;;;;10350604;28;20448;-89
2024/02/20 04:46:06;;;;;;;34.53;20.98;;;;;;;;;;10356391;28;20477;-90
2024/02/20 04:51:09;;;;;;;35.60;21.88;;;;;;;;;;10350254;28;20437;-90
2024/02/20 04:56:11;;;;;;;35.55;22.25;;;;;;;;;;10354991;28;20413;-90
2024/02/20 05:01:18;;;;;;;36.40;23.13;;;;;;;;;;10342876;28;20405;-89
2024/02/20 05:06:20;;;;;;;35.10;21.90;;;;;;;;;;10349521;28;20411;-91
2024/02/20 05:11:22;;;;;;;36.17;21.40;;;;;;;;;;10342892;28;21007;-89
2024/02/20 05:16:26;;;;;;;35.40;21.20;;;;;;;;;;10345742;28;20408;-90
2024/02/20 05:21:29;;;;;;;33.97;20.25;;;;;;;;;;10343726;28;20411;-90
2024/02/20 05:26:31;;;;;;;31.20;19.95;;;;;;;;;;10351028;28;20441;-89
2024/02/20 05:31:35;;;;;;;37.40;23.60;;;;;;;;;;10344866;28;20403;-90
2024/02/20 05:36:37;;;;;;;36.40;20.92;;;;;;;;;;10343183;28;20417;-90
2024/02/20 05:41:39;;;;;;;34.40;19.98;;;;;;;;;;10352184;28;20403;-91
2024/02/20 05:46:43;;;;;;;32.92;19.13;;;;;;;;;;10347837;28;20413;-90
2024/02/20 05:51:47;;;;;;;31.15;19.70;;;;;;;;;;10378473;28;20440;-88
2024/02/20 05:56:50;;;;;;;31.52;19.20;;;;;;;;;;10366607;28;20417;-88
2024/02/20 06:01:55;;;;;;;32.50;20.02;;;;;;;;;;10344102;28;20417;-87
2024/02/20 06:06:57;;;;;;;32.13;19.30;;;;;;;;;;10345769;28;20799;-89
2024/02/20 06:11:59;;;;;;;34.50;19.37;;;;;;;;;;10351733;28;20481;-88
2024/02/20 06:17:04;;;;;;;31.52;20.20;;;;;;;;;;10358290;28;20990;-87
2024/02/20 06:22:07;;;;;;;31.17;19.60;;;;;;;;;;10342578;28;20484;-87
2024/02/20 06:27:09;;;;;;;32.67;18.65;;;;;;;;;;10346728;28;20429;-86
2024/02/20 06:32:13;;;;;;;32.50;18.70;;;;;;;;;;10360326;28;20413;-89
2024/02/20 06:37:16;;;;;;;28.20;16.30;;;;;;;;;;10354330;28;20522;-89
2024/02/20 06:42:20;;;;;;;26.30;16.67;;;;;;;;;;10349421;28;20417;-88
2024/02/20 06:47:24;;;;;;;27.10;16.03;;;;;;;;;;10359993;28;20517;-93
2024/02/20 06:52:26;;;;;;;28.33;15.70;;;;;;;;;;10347436;28;20443;-88
2024/02/20 06:57:29;;;;;;;26.00;15.18;;;;;;;;;;10335994;28;20449;-87
2024/02/20 07:02:33;;;;;;;25.57;14.37;;;;;;;;;;10351548;28;20485;-88
2024/02/20 07:07:35;;;;;;;25.85;15.65;;;;;;;;;;10338638;28;20513;-88
2024/02/20 07:12:37;;;;;;;30.50;16.37;;;;;;;;;;10339396;28;20515;-88
2024/02/20 07:17:41;;;;;;;25.33;15.33;;;;;;;;;;10308226;28;20473;-89
2024/02/20 07:22:44;;;;;;;28.20;16.50;;;;;;;;;;10302897;28;20503;-86
2024/02/20 07:27:46;;;;;;;25.45;15.32;;;;;;;;;;10304766;28;20522;-88
2024/02/20 07:32:50;;;;;;;26.73;14.90;;;;;;;;;;10294193;28;20461;-87
2024/02/20 07:37:52;;;;;;;24.60;15.07;;;;;;;;;;10297658;28;20418;-87
2024/02/20 07:42:55;;;;;;;24.10;15.05;;;;;;;;;;10299298;28;20448;-88
2024/02/20 07:47:59;;;;;;;27.25;15.20;;;;;;;;;;10325041;23;20820;-79
2024/02/20 07:53:01;;;;;;;24.63;14.93;;;;;;;;;;10292198;28;20488;-79
2024/02/20 07:58:05;;;;;;;27.00;15.50;;;;;;;;;;10293808;28;20456;-79
2024/02/20 08:03:10;;;;;;;32.03;15.70;;;;;;;;;;10293792;28;20438;-79
2024/02/20 08:08:13;;;;;;;27.48;16.10;;;;;;;;;;10286664;28;20553;-78
2024/02/20 08:13:15;;;;;;;23.88;14.52;;;;;;;;;;10299266;28;20920;-79
2024/02/20 08:18:19;;;;;;;23.90;14.93;;;;;;;;;;10297035;28;20408;-78
2024/02/20 08:23:22;;;;;;;20.92;13.48;;;;;;;;;;10301097;28;20414;-79
2024/02/20 08:28:26;;;;;;;23.10;13.88;;;;;;;;;;10293620;28;20463;-79
2024/02/20 08:33:30;;;;;;;23.27;13.95;;;;;;;;;;10297410;28;20408;-79
2024/02/20 08:38:33;;;;;;;24.97;15.47;;;;;;;;;;10295977;28;20414;-79
2024/02/20 08:43:35;;;;;;;25.30;15.53;;;;;;;;;;10301637;28;20450;-79
2024/02/20 08:48:39;;;;;;;27.73;16.63;;;;;;;;;;10298902;28;20470;-78
2024/02/20 08:53:41;;;;;;;26.52;15.95;;;;;;;;;;10295238;28;20963;-78
2024/02/20 08:58:43;;;;;;;25.50;15.25;;;;;;;;;;10301003;28;20501;-79
2024/02/20 09:03:47;;;;;;;29.98;16.17;;;;;;;;;;10295447;28;20509;-79
2024/02/20 09:08:49;;;;;;;25.85;15.88;;;;;;;;;;10295604;28;20464;-79
2024/02/20 09:13:52;;;;;;;24.65;15.15;;;;;;;;;;10313604;28;20452;-79
2024/02/20 09:18:55;;;;;;;24.13;15.63;;;;;;;;;;10311137;28;20455;-79
2024/02/20 09:23:58;;;;;;;23.47;15.23;;;;;;;;;;10306152;28;20461;-78
2024/02/20 09:29:01;;;;;;;23.53;14.97;;;;;;;;;;10303240;28;20951;-79
2024/02/20 09:34:04;;;;;;;27.83;16.05;;;;;;;;;;10302702;28;20411;-78
2024/02/20 09:39:07;;;;;;;27.75;16.15;;;;;;;;;;10303978;28;21003;-78
2024/02/20 09:44:10;;;;;;;25.73;16.35;;;;;;;;;;10311736;28;20456;-79
2024/02/20 09:49:15;;;;;;;27.17;16.63;;;;;;;;;;10301427;28;20507;-79
2024/02/20 09:54:18;;;;;;;25.93;16.07;;;;;;;;;;10308160;28;20510;-79
2024/02/20 09:59:20;;;;;;;28.05;17.13;;;;;;;;;;10308444;28;20442;-79
2024/02/20 10:04:28;;;;;;;27.60;17.13;;;;;;;;;;10299672;28;20454;-78
2024/02/20 10:09:32;;;;;;;26.55;16.95;;;;;;;;;;10303095;28;20463;-79
2024/02/20 10:14:34;;;;;;;30.27;17.37;;;;;;;;;;10305454;28;20889;-79
2024/02/20 10:19:38;;;;;;;26.30;16.60;;;;;;;;;;10296081;28;20475;-79
2024/02/20 10:24:41;;;;;;;27.13;16.77;;;;;;;;;;10308207;28;20455;-78
2024/02/20 10:29:43;;;;;;;29.50;17.58;;;;;;;;;;10321600;28;20489;-79
2024/02/20 10:34:47;;;;;;;29.23;17.10;;;;;;;;;;10313791;28;20442;-79
2024/02/20 10:39:49;;;;;;;30.48;18.05;;;;;;;;;;10310134;28;20487;-80
2024/02/20 10:44:53;;;;;;;29.63;17.10;;;;;;;;;;10302339;28;20534;-81
2024/02/20 10:49:58;;;;;;;29.48;17.70;;;;;;;;;;10307058;28;21069;-81
2024/02/20 10:55:04;;;;;;;28.35;18.25;;;;;;;;;;10307058;28;20436;-80
2024/02/20 11:00:11;;;;;;;30.80;18.50;;;;;;;;;;10303857;28;20441;-81
2024/02/20 11:05:15;;;;;;;28.88;17.80;;;;;;;;;;10299697;28;20428;-80
2024/02/20 11:10:18;;;;;;;31.40;18.07;;;;;;;;;;10301236;28;20495;-81
2024/02/20 11:15:28;;;;;;;29.88;18.15;;;;;;;;;;10304135;28;20433;-81
2024/02/20 11:20:32;;;;;;;28.58;18.60;;;;;;;;;;10303313;28;20420;-80
2024/02/20 11:25:34;;;;;;;30.17;18.95;;;;;;;;;;10293736;28;20481;-80
2024/02/20 11:30:37;;;;;;;32.03;19.30;;;;;;;;;;10292812;28;20533;-80
2024/02/20 11:35:43;;;;;;;30.85;19.50;;;;;;;;;;10296919;28;20469;-80
2024/02/20 11:40:47;;;;;;;32.50;19.70;;;;;;;;;;10300178;28;20412;-80
2024/02/20 11:45:51;;;;;;;28.90;18.90;;;;;;;;;;10294186;28;20980;-81
2024/02/20 11:50:57;;;;;;;29.65;18.30;;;;;;;;;;10294215;28;20462;-80
2024/02/20 11:56:00;;;;;;;33.30;19.23;;;;;;;;;;10297745;28;20611;-80
2024/02/20 12:01:05;;;;;;;32.40;18.47;;;;;;;;;;10292995;28;20491;-80
2024/02/20 12:06:09;;;;;;;29.65;18.48;;;;;;;;;;10288503;28;20501;-81
2024/02/20 12:11:16;;;;;;;30.25;18.38;;;;;;;;;;10297030;28;20453;-80
2024/02/20 12:16:20;;;;;;;29.63;18.67;;;;;;;;;;10301660;28;20464;-80
2024/02/20 12:21:28;;;;;;;29.20;18.67;;;;;;;;;;10300521;28;20413;-81
2024/02/20 12:26:30;;;;;;;30.05;18.60;;;;;;;;;;10299594;28;20879;-81
2024/02/20 12:31:33;;;;;;;28.70;17.73;;;;;;;;;;10300795;28;20462;-81
2024/02/20 12:36:38;;;;;;;25.93;16.97;;;;;;;;;;10299604;28;20937;-80
2024/02/20 12:41:40;;;;;;;36.20;20.23;;;;;;;;;;10299623;28;20446;-80
2024/02/20 12:46:42;;;;;;;31.00;18.08;;;;;;;;;;10301749;28;20509;-80
2024/02/20 12:51:47;;;;;;;30.25;18.17;;;;;;;;;;10304749;28;20462;-81
2024/02/20 12:56:49;;;;;;;29.40;17.57;;;;;;;;;;10303951;28;20473;-80
2024/02/20 13:01:51;;;;;;;34.77;18.17;;;;;;;;;;10299768;28;20463;-80
2024/02/20 13:06:55;;;;;;;26.57;16.30;;;;;;;;;;10304479;28;20471;-80
2024/02/20 13:12:01;;;;;;;28.08;18.35;;;;;;;;;;10311678;28;20524;-81
2024/02/20 13:17:03;;;;;;;26.02;16.83;;;;;;;;;;10305631;28;20864;-81
2024/02/20 13:22:07;;;;;;;28.10;16.73;;;;;;;;;;10306117;28;20458;-80
2024/02/20 13:27:09;;;;;;;24.27;15.80;;;;;;;;;;10304890;28;20540;-81
2024/02/20 13:32:13;;;;;;;35.55;17.15;;;;;;;;;;10308330;28;21020;-80
2024/02/20 13:37:17;;;;;;;23.90;15.80;;;;;;;;;;10307917;28;20492;-80
2024/02/20 13:42:20;;;;;;;27.13;17.63;;;;;;;;;;10305166;28;20414;-81
2024/02/20 13:47:23;;;;;;;23.45;16.25;;;;;;;;;;10298846;28;20441;-81
2024/02/20 13:52:26;;;;;;;22.30;14.70;;;;;;;;;;10296044;28;20473;-81
2024/02/20 13:57:29;;;;;;;19.30;12.77;;;;;;;;;;10299856;28;20850;-80
2024/02/20 14:02:31;;;;;;;17.27;12.10;;;;;;;;;;10302066;28;20412;-80
2024/02/20 14:07:35;;;;;;;17.67;11.45;;;;;;;;;;10301714;28;20897;-81
2024/02/20 14:12:38;;;;;;;16.52;11.50;;;;;;;;;;10309958;28;20466;-80
2024/02/20 14:17:40;;;;;;;23.00;15.70;;;;;;;;;;10300926;28;20417;-78
2024/02/20 14:22:44;;;;;;;23.65;15.13;;;;;;;;;;10293808;28;20901;-81
2024/02/20 14:27:47;;;;;;;31.50;15.63;;;;;;;;;;10309034;28;20413;-81
2024/02/20 14:32:49;;;;;;;22.70;15.43;;;;;;;;;;10303498;28;20919;-80
2024/02/20 14:37:56;;;;;;;24.00;15.73;;;;;;;;;;10308823;28;20417;-81
2024/02/20 14:42:58;;;;;;;23.35;15.15;;;;;;;;;;10297276;28;20513;-80
2024/02/20 14:48:03;;;;;;;19.40;14.03;;;;;;;;;;10302441;28;20446;-80
2024/02/20 14:53:07;;;;;;;21.23;14.85;;;;;;;;;;10304747;28;20430;-80
2024/02/20 14:58:09;;;;;;;26.50;16.52;;;;;;;;;;10303309;28;20980;-80
2024/02/20 15:03:12;;;;;;;23.08;16.02;;;;;;;;;;10303711;28;20419;-80
2024/02/20 15:08:16;;;;;;;25.50;15.50;;;;;;;;;;10300037;28;20412;-81
2024/02/20 15:13:19;;;;;;;24.83;15.93;;;;;;;;;;10308180;28;20922;-81
2024/02/20 15:18:21;;;;;;;26.60;16.33;;;;;;;;;;10303622;28;20445;-80
2024/02/20 15:23:25;;;;;;;31.75;16.55;;;;;;;;;;10294722;28;20844;-80
2024/02/20 15:28:27;;;;;;;26.52;16.20;;;;;;;;;;10302425;28;20997;-80
2024/02/20 15:33:30;;;;;;;27.58;17.40;;;;;;;;;;10297451;28;20583;-81
2024/02/20 15:38:35;;;;;;;28.10;18.40;;;;;;;;;;10298693;28;20508;-80
2024/02/20 15:43:37;;;;;;;30.48;18.38;;;;;;;;;;10293161;28;20874;-79
2024/02/20 15:48:39;;;;;;;31.13;19.50;;;;;;;;;;10292480;28;20426;-80
2024/02/20 15:53:43;;;;;;;38.80;23.93;;;;;;;;;;10291448;28;20466;-80
2024/02/20 15:58:46;;;;;;;44.92;25.67;;;;;;;;;;10292275;28;20477;-80
2024/02/20 16:03:48;;;;;;;34.33;21.37;;;;;;;;;;10287387;28;20496;-79
2024/02/20 16:08:52;;;;;;;32.28;21.13;;;;;;;;;;10288904;28;20438;-80
2024/02/20 16:13:54;;;;;;;33.40;20.15;;;;;;;;;;10291666;28;20495;-80
2024/02/20 16:18:56;;;;;;;33.45;21.10;;;;;;;;;;10285851;28;20932;-80
2024/02/20 16:24:00;;;;;;;31.67;20.40;;;;;;;;;;10294638;28;21097;-80
2024/02/20 16:29:02;;;;;;;33.93;21.47;;;;;;;;;;10299021;28;20452;-79
2024/02/20 16:34:05;;;;;;;34.83;21.60;;;;;;;;;;10288245;28;20520;-81
2024/02/20 16:39:09;;;;;;;36.33;22.27;;;;;;;;;;10289946;28;20949;-81
2024/02/20 16:44:12;;;;;;;36.83;23.15;;;;;;;;;;10291785;28;20461;-81
2024/02/20 16:49:14;;;;;;;37.83;22.60;;;;;;;;;;10290272;28;20444;-82
2024/02/20 16:54:18;;;;;;;40.67;23.33;;;;;;;;;;10295040;28;20456;-80
2024/02/20 16:59:21;;;;;;;37.13;21.58;;;;;;;;;;10305010;28;20470;-81
2024/02/20 17:04:23;;;;;;;37.80;21.95;;;;;;;;;;10291372;28;20442;-81
2024/02/20 17:09:27;;;;;;;35.17;21.25;;;;;;;;;;10290449;28;20446;-80
2024/02/20 17:14:30;;;;;;;38.33;22.07;;;;;;;;;;10308846;28;21012;-81
2024/02/20 17:19:32;;;;;;;37.10;21.25;;;;;;;;;;10309706;28;20452;-81
2024/02/20 17:24:36;;;;;;;39.47;23.33;;;;;;;;;;10312020;28;20462;-81
2024/02/20 17:29:38;;;;;;;38.47;23.58;;;;;;;;;;10304174;28;20454;-81
2024/02/20 17:34:40;;;;;;;40.88;25.92;;;;;;;;;;10310600;28;20472;-80
2024/02/20 17:39:44;;;;;;;44.47;23.67;;;;;;;;;;10315654;28;20487;-80
2024/02/20 17:44:46;;;;;;;42.33;25.13;;;;;;;;;;10324210;28;20456;-81
2024/02/20 17:49:51;;;;;;;39.65;24.40;;;;;;;;;;10322330;28;20523;-80
2024/02/20 17:54:55;;;;;;;40.30;23.73;;;;;;;;;;10315153;28;20523;-80
2024/02/20 17:59:58;;;;;;;40.75;23.55;;;;;;;;;;10314282;28;21040;-80
2024/02/20 18:05:00;;;;;;;41.73;23.70;;;;;;;;;;10313861;28;20498;-80
2024/02/20 18:10:04;;;;;;;48.67;28.73;;;;;;;;;;10310358;28;20462;-79
2024/02/20 18:15:09;;;;;;;42.60;25.00;;;;;;;;;;10310551;28;20979;-79
2024/02/20 18:20:12;;;;;;;41.65;25.33;;;;;;;;;;10310925;28;20521;-79
2024/02/20 18:25:16;;;;;;;47.17;27.27;;;;;;;;;;10303932;28;20452;-79
2024/02/20 18:30:19;;;;;;;49.00;26.75;;;;;;;;;;10311438;28;20534;-79
2024/02/20 18:35:21;;;;;;;42.92;26.08;;;;;;;;;;10304634;28;20518;-79
2024/02/20 18:40:25;;;;;;;46.38;27.85;;;;;;;;;;10315751;28;20486;-80
2024/02/20 18:45:28;;;;;;;45.92;27.60;;;;;;;;;;10297528;28;20574;-79
2024/02/20 18:50:31;;;;;;;44.97;28.67;;;;;;;;;;10302953;28;20477;-80
2024/02/20 18:55:35;;;;;;;45.80;28.30;;;;;;;;;;10306655;28;21015;-79
2024/02/20 19:00:38;;;;;;;48.15;28.08;;;;;;;;;;10303516;28;20916;-79
2024/02/20 19:05:41;;;;;;;53.38;28.33;;;;;;;;;;10297783;28;21000;-79
2024/02/20 19:10:44;;;;;;;48.80;28.38;;;;;;;;;;10294777;28;20461;-80
2024/02/20 19:15:47;;;;;;;52.42;29.98;;;;;;;;;;10292898;28;20452;-78
2024/02/20 19:20:49;;;;;;;51.40;31.17;;;;;;;;;;10281791;28;21229;-79
2024/02/20 19:25:53;;;;;;;53.22;32.08;;;;;;;;;;10294220;28;20797;-80
2024/02/20 19:30:55;;;;;;;48.28;28.83;;;;;;;;;;10292748;28;20850;-79
2024/02/20 19:35:57;;;;;;;50.85;29.73;;;;;;;;;;10296089;28;20458;-79
2024/02/20 19:41:04;;;;;;;47.83;29.40;;;;;;;;;;10292079;28;20518;-79
2024/02/20 19:46:07;;;;;;;51.75;27.77;;;;;;;;;;10296778;28;20480;-79
2024/02/20 19:51:09;;;;;;;48.10;28.97;;;;;;;;;;10299985;28;20586;-79
2024/02/20 19:56:13;;;;;;;49.40;29.37;;;;;;;;;;10303752;28;20511;-79
2024/02/20 20:01:15;;;;;;;49.65;30.08;;;;;;;;;;10313154;28;20453;-79
2024/02/20 20:06:17;;;;;;;49.93;29.97;;;;;;;;;;10296361;28;20436;-78
2024/02/20 20:11:22;;;;;;;54.33;30.83;;;;;;;;;;10295187;28;20445;-79
2024/02/20 20:16:24;;;;;;;61.08;34.15;;;;;;;;;;10297471;28;20873;-79
2024/02/20 20:21:27;;;;;;;61.28;34.22;;;;;;;;;;10293581;28;20456;-80
2024/02/20 20:26:30;;;;;;;61.88;35.20;;;;;;;;;;10290371;28;20466;-79
2024/02/20 20:31:33;;;;;;;56.90;33.88;;;;;;;;;;10297990;28;20533;-79
2024/02/20 20:36:36;;;;;;;60.53;34.40;;;;;;;;;;10292584;28;20464;-79
2024/02/20 20:41:40;;;;;;;63.07;37.03;;;;;;;;;;10303731;28;20464;-79
2024/02/20 20:46:43;;;;;;;60.42;36.03;;;;;;;;;;10329560;28;20504;-79
2024/02/20 20:51:45;;;;;;;62.85;36.50;;;;;;;;;;10328452;28;20847;-79
2024/02/20 20:56:49;;;;;;;64.18;36.53;;;;;;;;;;10319231;28;20461;-80
2024/02/20 21:01:54;;;;;;;60.20;35.00;;;;;;;;;;10308051;28;20900;-80
2024/02/20 21:06:56;;;;;;;63.88;36.15;;;;;;;;;;10320280;28;20445;-80
2024/02/20 21:12:00;;;;;;;60.03;34.55;;;;;;;;;;10322101;28;20460;-82
2024/02/20 21:17:02;;;;;;;67.80;41.55;;;;;;;;;;10299338;28;21159;-82
2024/02/20 21:22:05;;;;;;;67.13;39.33;;;;;;;;;;10309169;28;21881;-81
2024/02/20 21:27:09;;;;;;;67.43;39.08;;;;;;;;;;10319954;28;20491;-81
2024/02/20 21:32:11;;;;;;;63.85;38.95;;;;;;;;;;10314831;28;20472;-81
2024/02/20 21:37:14;;;;;;;67.35;38.60;;;;;;;;;;10314206;28;20459;-81
2024/02/20 21:42:18;;;;;;;63.27;37.90;;;;;;;;;;10310699;28;20460;-81
2024/02/20 21:47:20;;;;;;;64.07;37.70;;;;;;;;;;10300404;28;20442;-80
2024/02/20 21:52:23;;;;;;;71.88;42.15;;;;;;;;;;10303032;28;20454;-80
2024/02/20 21:57:27;;;;;;;68.28;39.30;;;;;;;;;;10302370;28;20450;-81
2024/02/20 22:02:29;;;;;;;67.28;39.47;;;;;;;;;;10312139;28;20438;-81
2024/02/20 22:07:31;;;;;;;65.45;38.72;;;;;;;;;;10303351;28;20511;-81
2024/02/20 22:12:35;;;;;;;59.78;37.35;;;;;;;;;;10312056;28;20950;-81
2024/02/20 22:17:37;;;;;;;61.63;36.07;;;;;;;;;;10308908;28;20453;-81
2024/02/20 22:22:40;;;;;;;60.73;36.27;;;;;;;;;;10298626;28;20453;-80
2024/02/20 22:27:43;;;;;;;64.97;37.77;;;;;;;;;;10300885;28;21000;-81
2024/02/20 22:32:46;;;;;;;61.10;38.03;;;;;;;;;;10301244;28;20543;-80
2024/02/20 22:37:48;;;;;;;62.55;36.15;;;;;;;;;;10297633;28;20529;-81
2024/02/20 22:42:52;;;;;;;62.33;35.38;;;;;;;;;;10298036;28;20512;-81
2024/02/20 22:47:54;;;;;;;58.90;35.60;;;;;;;;;;10292597;28;20447;-80
2024/02/20 22:52:57;;;;;;;59.47;35.70;;;;;;;;;;10290799;28;20456;-80
2024/02/20 22:58:01;;;;;;;59.90;33.97;;;;;;;;;;10293922;28;20449;-80
2024/02/20 23:03:03;;;;;;;60.13;35.53;;;;;;;;;;10293819;28;20770;-81
2024/02/20 23:08:06;;;;;;;56.53;34.77;;;;;;;;;;10297901;28;20407;-81
2024/02/20 23:13:10;;;;;;;61.80;34.72;;;;;;;;;;10297827;28;20443;-80
2024/02/20 23:18:12;;;;;;;57.97;34.40;;;;;;;;;;10295919;28;20901;-80
2024/02/20 23:23:15;;;;;;;59.75;35.15;;;;;;;;;;10300555;28;20975;-80
2024/02/20 23:28:19;;;;;;;62.72;35.05;;;;;;;;;;10303716;28;20417;-81
2024/02/20 23:33:21;;;;;;;61.53;35.40;;;;;;;;;;10301791;28;20464;-81
2024/02/20 23:38:23;;;;;;;58.77;32.87;;;;;;;;;;10299407;28;20965;-81
2024/02/20 23:43:27;;;;;;;53.07;32.80;;;;;;;;;;10306945;28;20442;-81
2024/02/20 23:48:30;;;;;;;58.72;33.10;;;;;;;;;;10301261;28;20473;-80
2024/02/20 23:53:32;;;;;;;56.57;32.27;;;;;;;;;;10298586;28;20545;-81
2024/02/20 23:58:37;;;;;;;53.77;31.70;;;;;;;;;;10301957;28;20489;-81
